Shaftsbury, Vermont
Current Conditions -  °F | °C
As of 8:54 AM on Tuesday 21 Oct 2014 (Local Time) from KDDH Reporting Station
Light Rain Light Rain  
Wind Chill: 10°   Ceiling: 5000
Heat Index: 10°   Visibility: 10mi
Dew Point:   Wind: 0mph
Humidity: 77%   Direction: NA
Pressure: 29.92"   Gusts: NA
Location:  43.01°N, 73.19°W
Report Text: KDDH 211254Z AUTO 00000KT 10SM -RA OVC050 10/06 A2992 RMK AO2 RAB40 SLP133 P0000 T01000061
Loading
Personal Weather Stations






























Interactive Weather Map
Tropical Storm Tracking
New forecast layout! Learn more

10-Day Weather Forecast

Advertisements
Track Severe Weather on mobile